Hendersonville, North Carolina
Current Conditions -  °F | °C
As of 6:54 AM on Saturday 25 Oct 2014 (Local Time) from KAVL Reporting Station
Clear Clear  
Wind Chill: 38°   Ceiling: Unl
Heat Index: 43°   Visibility: 10mi
Dew Point: 36°   Wind: 8mph
Humidity: 76%   Direction: 350°N
Pressure: 30.09"   Gusts: NA
Location:  35.32°N, 82.46°W
Report Text: KAVL 251054Z 35007KT 10SM CLR 06/02 A3009 RMK AO2 SLP182 T00610022
Loading
Personal Weather Stations






























Interactive Weather Map
Tropical Storm Tracking
New forecast layout! Learn more

10-Day Weather Forecast

Advertisements
Track Severe Weather on mobile